Accueil
METAR-TAF:

METAR-TAF

Aéroports :

Fort Richardson, Alaska, États-Unis

latitude: 61-15-45N, longitude: 149-39-17W, altitude: 115 m

Observation

Le bulletin a été fait il y a 30 minutes, à 21:58 UTC
Vent 4 kt de sud/sud-ouest
Température -4°C
Humidité 49%
Pression 1012 hPa
Visibilité: 11.3 km
Ciel clair

METAR: PAFR 282158Z AUTO 20004KT 7SM CLR M04/M13 A2988 RMK AO2 SLP132 T10431128 $

Heure: 13:28 (22:28 UTC)


TAF: absent

Observations et prévisions météorologiques de plus de 4000 aéroports (messages METAR et TAF).

Les stations disponibles sont représentées par des disques jaunes et rouges sur la carte.

Passer la souris dessus pour voir le nom de la station.

Cliquer dessus pour voir les observations et prévisions météorologiques.

Pour changer de carte: cliquez sur les boutons verts avec une croix noire pour zoomer, sur le bouton vert avec un tiret pour effectuer un zoom arrière, ou sur les flèches vertes pour les cartes adjacentes.


METAR-TAF: